createdAt,value
2017-04-04T00:00:50.870Z,0
2017-04-04T00:01:50.833Z,0
2017-04-04T00:02:51.248Z,0
2017-04-04T00:03:51.162Z,0
2017-04-04T00:04:51.199Z,0
2017-04-04T00:05:51.158Z,0
2017-04-04T00:06:50.869Z,0
2017-04-04T00:07:51.724Z,0
2017-04-04T00:08:51.123Z,0
2017-04-04T00:09:51.086Z,0
2017-04-04T00:10:51.264Z,0
2017-04-04T00:11:51.191Z,0
2017-04-04T00:12:51.347Z,0
2017-04-04T00:13:51.147Z,0
2017-04-04T00:14:50.860Z,0
2017-04-04T00:15:51.218Z,0
2017-04-04T00:16:51.227Z,0
2017-04-04T00:17:50.552Z,0
2017-04-04T00:18:51.942Z,0
2017-04-04T00:19:50.918Z,0
2017-04-04T00:20:51.483Z,0
2017-04-04T00:21:51.212Z,0
2017-04-04T00:22:50.987Z,0
2017-04-04T00:23:50.900Z,0
2017-04-04T00:24:51.002Z,0
2017-04-04T00:25:51.272Z,0
2017-04-04T00:26:50.693Z,0
2017-04-04T00:27:51.342Z,0
2017-04-04T00:28:50.933Z,0
2017-04-04T00:29:51.889Z,0
2017-04-04T00:30:51.346Z,0
2017-04-04T00:31:51.801Z,0
2017-04-04T00:32:51.262Z,0
2017-04-04T00:33:51.155Z,0
2017-04-04T00:34:50.949Z,0
2017-04-04T00:35:51.343Z,0
2017-04-04T00:36:51.031Z,0
2017-04-04T00:37:51.291Z,0
2017-04-04T00:38:51.294Z,0
2017-04-04T00:39:51.343Z,0
2017-04-04T00:40:51.599Z,0
2017-04-04T00:41:51.708Z,0
2017-04-04T00:42:52.256Z,0
2017-04-04T00:43:51.019Z,0
2017-04-04T00:44:51.618Z,0
2017-04-04T00:45:51.063Z,0
2017-04-04T00:46:51.387Z,0
2017-04-04T00:47:51.123Z,0
2017-04-04T00:48:51.433Z,0
2017-04-04T00:49:51.048Z,0
2017-04-04T00:50:51.091Z,0
2017-04-04T00:51:51.443Z,0
2017-04-04T00:52:51.238Z,0
2017-04-04T00:53:52.712Z,0
2017-04-04T00:54:51.367Z,0
2017-04-04T00:55:52.040Z,0
2017-04-04T00:56:51.426Z,0
2017-04-04T00:57:51.393Z,0
2017-04-04T00:58:51.203Z,0
2017-04-04T00:59:51.397Z,0
2017-04-04T01:00:51.458Z,0
2017-04-04T01:01:50.838Z,0
2017-04-04T01:02:51.411Z,0
2017-04-04T01:03:51.430Z,0
2017-04-04T01:04:53.045Z,0
2017-04-04T01:05:51.175Z,0
2017-04-04T01:06:52.428Z,0
2017-04-04T01:07:51.128Z,0
2017-04-04T01:08:51.248Z,0
2017-04-04T01:09:51.517Z,0
2017-04-04T01:10:51.516Z,0
2017-04-04T01:11:50.981Z,0
2017-04-04T01:12:51.210Z,0
2017-04-04T01:13:51.554Z,0
2017-04-04T01:14:51.529Z,0
2017-04-04T01:15:51.167Z,0
2017-04-04T01:16:51.496Z,0
2017-04-04T01:17:52.918Z,0
2017-04-04T01:18:51.196Z,0
2017-04-04T01:19:51.520Z,0
2017-04-04T01:20:51.195Z,0
2017-04-04T01:21:51.307Z,0
2017-04-04T01:22:51.579Z,0
2017-04-04T01:23:51.267Z,0
2017-04-04T01:24:51.470Z,0
2017-04-04T01:25:51.596Z,0
2017-04-04T01:26:51.426Z,0
2017-04-04T01:27:51.549Z,0
2017-04-04T01:28:51.343Z,0
2017-04-04T01:29:51.568Z,0
2017-04-04T01:30:51.575Z,0
2017-04-04T01:31:51.002Z,0
2017-04-04T01:32:51.631Z,0
2017-04-04T01:34:06.242Z,0
2017-04-04T01:34:51.320Z,0
2017-04-04T01:35:52.300Z,0
2017-04-04T01:36:51.710Z,0
2017-04-04T01:37:51.863Z,0
2017-04-04T01:38:51.345Z,0
2017-04-04T01:39:51.774Z,0
2017-04-04T01:40:51.723Z,0
2017-04-04T01:41:51.625Z,0
2017-04-04T01:42:51.364Z,0
2017-04-04T01:43:51.691Z,0
2017-04-04T01:44:51.331Z,0
2017-04-04T01:45:51.699Z,0
2017-04-04T01:46:52.320Z,0
2017-04-04T01:47:52.026Z,0
2017-04-04T01:48:52.537Z,0
2017-04-04T01:49:51.664Z,0
2017-04-04T01:50:51.408Z,0
2017-04-04T01:51:51.678Z,0
2017-04-04T01:52:51.770Z,0
2017-04-04T01:53:51.700Z,0
2017-04-04T01:54:51.431Z,0
2017-04-04T01:55:51.166Z,0
2017-04-04T01:56:51.760Z,0
2017-04-04T01:57:51.757Z,0
2017-04-04T01:58:51.391Z,0
2017-04-04T01:59:53.333Z,0
2017-04-04T02:00:51.512Z,0
2017-04-04T02:01:52.212Z,0
2017-04-04T02:02:51.583Z,0
2017-04-04T02:03:54.193Z,0
2017-04-04T02:04:51.486Z,0
2017-04-04T02:05:51.845Z,0
2017-04-04T02:06:51.797Z,0
2017-04-04T02:07:51.753Z,0
2017-04-04T02:08:51.866Z,0
2017-04-04T02:09:51.164Z,0
2017-04-04T02:10:53.706Z,0
2017-04-04T02:11:51.463Z,0
2017-04-04T02:12:52.505Z,0
2017-04-04T02:13:51.525Z,0
2017-04-04T02:14:51.526Z,0
2017-04-04T02:15:51.855Z,0
2017-04-04T02:16:51.797Z,0
2017-04-04T02:17:52.134Z,0
2017-04-04T02:18:51.883Z,0
2017-04-04T02:19:51.792Z,0
2017-04-04T02:20:51.514Z,0
2017-04-04T02:21:51.873Z,0
2017-04-04T02:22:51.520Z,0
2017-04-04T02:23:52.869Z,0
2017-04-04T02:24:51.958Z,0
2017-04-04T02:25:51.849Z,0
2017-04-04T02:26:51.977Z,0
2017-04-04T02:27:51.555Z,0
2017-04-04T02:28:51.966Z,0
2017-04-04T02:29:51.975Z,0
2017-04-04T02:30:52.421Z,0
2017-04-04T02:31:52.239Z,0
2017-04-04T02:32:51.881Z,0
2017-04-04T02:33:51.327Z,0
2017-04-04T02:34:51.642Z,0
2017-04-04T02:35:51.637Z,0
2017-04-04T02:36:51.905Z,0
2017-04-04T02:37:51.338Z,0
2017-04-04T02:38:51.921Z,0
2017-04-04T02:39:52.033Z,0
2017-04-04T02:40:51.673Z,0
2017-04-04T02:41:52.431Z,0
2017-04-04T02:42:52.340Z,0
2017-04-04T02:43:52.093Z,0
2017-04-04T02:44:51.953Z,0
2017-04-04T02:45:51.677Z,0
2017-04-04T02:46:52.011Z,0
2017-04-04T02:47:52.076Z,0
2017-04-04T02:48:51.701Z,0
2017-04-04T02:49:51.399Z,0
2017-04-04T02:50:51.991Z,0
2017-04-04T02:51:52.093Z,0
2017-04-04T02:52:53.216Z,0
2017-04-04T02:53:52.045Z,0
2017-04-04T02:54:52.743Z,0
2017-04-04T02:55:52.055Z,0
2017-04-04T02:56:52.170Z,0
2017-04-04T02:57:52.070Z,0
2017-04-04T02:58:52.175Z,0
2017-04-04T02:59:51.812Z,0
2017-04-04T03:00:52.046Z,0
2017-04-04T03:01:51.924Z,0
2017-04-04T03:02:51.411Z,0
2017-04-04T03:04:20.906Z,0
2017-04-04T03:04:52.152Z,0
2017-04-04T03:05:52.743Z,0
2017-04-04T03:06:51.754Z,0
2017-04-04T03:07:52.342Z,0
2017-04-04T03:08:52.128Z,0
2017-04-04T03:09:52.087Z,0
2017-04-04T03:10:51.505Z,0
2017-04-04T03:11:51.820Z,0
2017-04-04T03:12:52.245Z,0
2017-04-04T03:13:53.297Z,0
2017-04-04T03:14:51.579Z,0
2017-04-04T03:15:51.798Z,0
2017-04-04T03:16:53.461Z,0
2017-04-04T03:17:51.903Z,0
2017-04-04T03:18:52.791Z,0
2017-04-04T03:19:52.195Z,0
2017-04-04T03:20:51.670Z,0
2017-04-04T03:21:51.820Z,0
2017-04-04T03:22:51.883Z,0
2017-04-04T03:23:52.156Z,0
2017-04-04T03:24:51.632Z,0
2017-04-04T03:25:52.216Z,0
2017-04-04T03:26:52.322Z,0
2017-04-04T03:27:51.587Z,0
2017-04-04T03:28:51.917Z,0
2017-04-04T03:29:53.276Z,0
2017-04-04T03:30:52.389Z,0
2017-04-04T03:31:51.969Z,0
2017-04-04T03:32:51.875Z,0
2017-04-04T03:33:51.930Z,0
2017-04-04T03:34:52.468Z,0
2017-04-04T03:35:51.944Z,0
2017-04-04T03:36:52.497Z,0
2017-04-04T03:37:51.645Z,0
2017-04-04T03:38:52.312Z,0
2017-04-04T03:39:51.974Z,0
2017-04-04T03:40:52.236Z,0
2017-04-04T03:41:52.297Z,0
2017-04-04T03:42:52.077Z,0
2017-04-04T03:43:52.297Z,0
2017-04-04T03:44:51.478Z,0
2017-04-04T03:45:52.408Z,0
2017-04-04T03:46:51.628Z,0
2017-04-04T03:47:52.870Z,0
2017-04-04T03:48:52.334Z,0
2017-04-04T03:49:52.285Z,0
2017-04-04T03:50:52.328Z,0
2017-04-04T03:51:52.036Z,0
2017-04-04T03:52:52.348Z,0
2017-04-04T03:53:51.715Z,0
2017-04-04T03:54:51.724Z,0
2017-04-04T03:55:52.368Z,0
2017-04-04T03:56:52.665Z,0
2017-04-04T03:57:52.067Z,0
2017-04-04T03:58:53.422Z,0
2017-04-04T03:59:51.754Z,0
2017-04-04T04:00:52.871Z,0
2017-04-04T04:01:52.147Z,0
2017-04-04T04:02:51.765Z,0
2017-04-04T04:03:52.322Z,0
2017-04-04T04:04:52.360Z,0
2017-04-04T04:05:52.403Z,0
2017-04-04T04:06:51.737Z,0
2017-04-04T04:07:52.122Z,0
2017-04-04T04:08:52.480Z,0
2017-04-04T04:09:54.187Z,0
2017-04-04T04:10:52.434Z,0
2017-04-04T04:11:53.674Z,0
2017-04-04T04:12:52.133Z,0
2017-04-04T04:13:52.465Z,0
2017-04-04T04:14:52.253Z,0
2017-04-04T04:15:52.172Z,0
2017-04-04T04:16:52.107Z,0
2017-04-04T04:17:52.776Z,0
2017-04-04T04:18:52.473Z,0
2017-04-04T04:19:52.485Z,0
2017-04-04T04:20:52.286Z,0
2017-04-04T04:21:52.439Z,0
2017-04-04T04:22:54.217Z,0
2017-04-04T04:23:52.134Z,0
2017-04-04T04:24:52.475Z,0
2017-04-04T04:25:52.310Z,0
2017-04-04T04:26:51.849Z,0
2017-04-04T04:27:52.167Z,0
2017-04-04T04:28:52.581Z,0
2017-04-04T04:29:52.480Z,0
2017-04-04T04:30:52.578Z,0
2017-04-04T04:31:52.669Z,0
2017-04-04T04:32:52.557Z,0
2017-04-04T04:33:52.196Z,0
2017-04-04T04:34:52.190Z,0
2017-04-04T04:35:52.252Z,0
2017-04-04T04:36:52.302Z,0
2017-04-04T04:37:52.583Z,0
2017-04-04T04:38:52.590Z,0
2017-04-04T04:39:51.952Z,0
2017-04-04T04:40:52.544Z,0
2017-04-04T04:41:52.646Z,0
2017-04-04T04:42:52.905Z,0
2017-04-04T04:43:52.563Z,0
2017-04-04T04:44:52.733Z,0
2017-04-04T04:45:52.248Z,0
2017-04-04T04:46:51.941Z,0
2017-04-04T04:47:52.364Z,0
2017-04-04T04:48:52.366Z,0
2017-04-04T04:49:53.485Z,0
2017-04-04T04:50:52.640Z,0
2017-04-04T04:51:52.337Z,0
2017-04-04T04:52:52.334Z,0
2017-04-04T04:53:53.511Z,0
2017-04-04T04:54:52.675Z,0
2017-04-04T04:55:52.756Z,0
2017-04-04T04:56:52.628Z,0
2017-04-04T04:57:52.315Z,0
2017-04-04T04:58:52.622Z,0
2017-04-04T04:59:52.733Z,0
2017-04-04T05:00:53.551Z,0
2017-04-04T05:01:52.766Z,0
2017-04-04T05:02:53.540Z,0
2017-04-04T05:03:52.421Z,0
2017-04-04T05:04:52.398Z,5
2017-04-04T05:05:52.100Z,5
2017-04-04T05:06:53.569Z,5
2017-04-04T05:07:52.826Z,5
2017-04-04T05:08:54.317Z,5
2017-04-04T05:09:52.522Z,5
2017-04-04T05:10:52.486Z,5
2017-04-04T05:11:52.448Z,5
2017-04-04T05:12:52.706Z,5
2017-04-04T05:13:52.811Z,5
2017-04-04T05:14:52.101Z,10
2017-04-04T05:15:52.713Z,10
2017-04-04T05:16:52.813Z,10
2017-04-04T05:17:52.164Z,10
2017-04-04T05:18:52.219Z,10
2017-04-04T05:19:52.175Z,10
2017-04-04T05:20:52.786Z,10
2017-04-04T05:21:52.905Z,15
2017-04-04T05:22:52.493Z,15
2017-04-04T05:23:52.809Z,15
2017-04-04T05:24:53.807Z,15
2017-04-04T05:25:52.831Z,15
2017-04-04T05:26:53.276Z,15
2017-04-04T05:27:52.475Z,15
2017-04-04T05:28:52.730Z,20
2017-04-04T05:29:52.851Z,20
2017-04-04T05:30:52.573Z,20
2017-04-04T05:31:52.184Z,20
2017-04-04T05:32:53.359Z,20
2017-04-04T05:33:52.828Z,25
2017-04-04T05:34:52.596Z,25
2017-04-04T05:35:53.795Z,25
2017-04-04T05:36:52.615Z,25
2017-04-04T05:37:54.048Z,25
2017-04-04T05:38:52.836Z,25
2017-04-04T05:39:53.438Z,30
2017-04-04T05:40:52.967Z,30
2017-04-04T05:41:52.845Z,30
2017-04-04T05:42:52.257Z,30
2017-04-04T05:43:52.645Z,30
2017-04-04T05:44:52.239Z,35
2017-04-04T05:45:52.754Z,35
2017-04-04T05:46:52.925Z,35
2017-04-04T05:47:52.579Z,40
2017-04-04T05:48:54.862Z,40
2017-04-04T05:49:52.943Z,45
2017-04-04T05:50:54.331Z,45
2017-04-04T05:51:52.587Z,40
2017-04-04T05:52:52.901Z,45
2017-04-04T05:53:52.919Z,50
2017-04-04T05:54:52.672Z,60
2017-04-04T05:55:52.973Z,65
2017-04-04T05:56:52.974Z,65
2017-04-04T05:57:53.828Z,65
2017-04-04T05:58:52.992Z,75
2017-04-04T05:59:53.100Z,80
2017-04-04T06:00:52.695Z,80
2017-04-04T06:01:52.340Z,75
2017-04-04T06:02:52.775Z,70
2017-04-04T06:03:52.660Z,80
2017-04-04T06:04:52.133Z,80
2017-04-04T06:05:52.982Z,85
2017-04-04T06:06:52.980Z,95
2017-04-04T06:07:52.721Z,105
2017-04-04T06:08:54.108Z,100
2017-04-04T06:09:53.014Z,100
2017-04-04T06:10:53.987Z,120
2017-04-04T06:11:53.072Z,115
2017-04-04T06:12:53.099Z,100
2017-04-04T06:13:52.495Z,100
2017-04-04T06:14:52.713Z,90
2017-04-04T06:15:53.196Z,80
2017-04-04T06:16:53.090Z,85
2017-04-04T06:17:53.045Z,95
2017-04-04T06:18:53.168Z,105
2017-04-04T06:19:53.050Z,115
2017-04-04T06:20:53.114Z,120
2017-04-04T06:21:54.463Z,145
2017-04-04T06:22:53.062Z,170
2017-04-04T06:23:53.669Z,190
2017-04-04T06:24:52.824Z,190
2017-04-04T06:25:52.920Z,185
2017-04-04T06:26:53.101Z,190
2017-04-04T06:27:53.157Z,170
2017-04-04T06:28:53.589Z,165
2017-04-04T06:29:52.875Z,170
2017-04-04T06:30:54.367Z,180
2017-04-04T06:31:53.128Z,165
2017-04-04T06:32:52.871Z,180
2017-04-04T06:33:53.142Z,185
2017-04-04T06:34:54.266Z,205
2017-04-04T06:35:53.248Z,215
2017-04-04T06:36:52.632Z,220
2017-04-04T06:37:53.217Z,240
2017-04-04T06:38:52.642Z,270
2017-04-04T06:39:52.960Z,290
2017-04-04T06:40:53.245Z,290
2017-04-04T06:41:53.750Z,300
2017-04-04T06:42:52.930Z,300
2017-04-04T06:43:53.246Z,300
2017-04-04T06:44:53.216Z,300
2017-04-04T06:45:52.951Z,305
2017-04-04T06:46:53.241Z,315
2017-04-04T06:47:52.983Z,325
2017-04-04T06:48:53.075Z,330
2017-04-04T06:49:52.930Z,315
2017-04-04T06:50:52.987Z,235
2017-04-04T06:51:53.010Z,135
2017-04-04T06:52:54.211Z,100
2017-04-04T06:53:53.056Z,100
2017-04-04T06:54:53.573Z,95
2017-04-04T06:55:53.332Z,95
2017-04-04T06:56:52.914Z,95
2017-04-04T06:57:53.306Z,95
2017-04-04T06:58:53.053Z,95
2017-04-04T06:59:53.667Z,100
2017-04-04T07:00:53.358Z,100
2017-04-04T07:01:53.375Z,100
2017-04-04T07:02:53.064Z,100
2017-04-04T07:03:54.634Z,100
2017-04-04T07:04:53.072Z,100
2017-04-04T07:05:53.934Z,100
2017-04-04T07:06:53.104Z,100
2017-04-04T07:07:53.341Z,100
2017-04-04T07:08:53.096Z,100
2017-04-04T07:09:53.099Z,100
2017-04-04T07:10:53.488Z,100
2017-04-04T07:11:53.062Z,100
2017-04-04T07:12:53.129Z,100
2017-04-04T07:13:53.098Z,100
2017-04-04T07:14:55.174Z,100
2017-04-04T07:15:53.400Z,100
2017-04-04T07:16:54.505Z,100
2017-04-04T07:17:53.175Z,100
2017-04-04T07:18:53.879Z,100
2017-04-04T07:19:53.120Z,100
2017-04-04T07:20:53.579Z,100
2017-04-04T07:21:53.509Z,100
2017-04-04T07:22:55.696Z,100
2017-04-04T07:23:53.508Z,100
2017-04-04T07:24:53.621Z,100
2017-04-04T07:25:53.513Z,100
2017-04-04T07:26:53.461Z,100
2017-04-04T07:27:54.786Z,100
2017-04-04T07:28:55.356Z,100
2017-04-04T07:29:52.612Z,100
2017-04-04T07:30:53.584Z,100
2017-04-04T07:31:53.183Z,100
2017-04-04T07:32:53.556Z,100
2017-04-04T07:33:53.656Z,100
2017-04-04T07:34:53.257Z,100
2017-04-04T07:35:53.214Z,100
2017-04-04T07:36:54.006Z,100
2017-04-04T07:37:53.574Z,100
2017-04-04T07:38:53.545Z,100
2017-04-04T07:39:53.611Z,100
2017-04-04T07:40:53.249Z,100
2017-04-04T07:41:53.610Z,100
2017-04-04T07:42:53.298Z,100
2017-04-04T07:43:53.412Z,105
2017-04-04T07:44:53.267Z,105
2017-04-04T07:45:53.319Z,105
2017-04-04T07:46:53.655Z,105
2017-04-04T07:47:54.639Z,105
2017-04-04T07:48:53.324Z,105
2017-04-04T07:49:54.010Z,105
2017-04-04T07:50:53.607Z,105
2017-04-04T07:51:53.598Z,105
2017-04-04T07:52:53.293Z,105
2017-04-04T07:53:52.741Z,105
2017-04-04T07:54:53.519Z,100
2017-04-04T07:55:53.639Z,100
2017-04-04T07:56:53.690Z,100
2017-04-04T07:57:53.376Z,100
2017-04-04T07:58:54.954Z,100
2017-04-04T07:59:53.657Z,100
2017-04-04T08:00:54.364Z,100
2017-04-04T08:01:53.110Z,100
2017-04-04T08:02:53.788Z,100
2017-04-04T08:03:54.173Z,100
2017-04-04T08:04:53.416Z,100
2017-04-04T08:05:53.734Z,100
2017-04-04T08:06:53.122Z,100
2017-04-04T08:07:53.441Z,100
2017-04-04T08:08:53.812Z,100
2017-04-04T08:09:53.447Z,100
2017-04-04T08:10:53.514Z,100
2017-04-04T08:11:54.933Z,100
2017-04-04T08:12:52.889Z,100
2017-04-04T08:13:53.783Z,100
2017-04-04T08:14:53.109Z,100
2017-04-04T08:15:53.791Z,100
2017-04-04T08:16:53.455Z,100
2017-04-04T08:17:53.558Z,100
2017-04-04T08:18:53.462Z,100
2017-04-04T08:19:53.926Z,100
2017-04-04T08:20:53.557Z,100
2017-04-04T08:21:53.820Z,100
2017-04-04T08:22:55.344Z,100
2017-04-04T08:23:53.834Z,100
2017-04-04T08:24:53.868Z,100
2017-04-04T08:25:53.605Z,100
2017-04-04T08:26:53.314Z,100
2017-04-04T08:27:53.808Z,100
2017-04-04T08:28:53.556Z,100
2017-04-04T08:29:53.570Z,205
2017-04-04T08:30:53.567Z,530
2017-04-04T08:31:54.386Z,705
2017-04-04T08:32:53.952Z,730
2017-04-04T08:33:53.372Z,720
2017-04-04T08:34:54.593Z,715
2017-04-04T08:35:53.553Z,720
2017-04-04T08:36:53.877Z,730
2017-04-04T08:37:53.555Z,715
2017-04-04T08:38:53.646Z,485
2017-04-04T08:39:53.323Z,205
2017-04-04T08:40:54.007Z,125
2017-04-04T08:41:53.290Z,125
2017-04-04T08:42:55.103Z,125
2017-04-04T08:43:53.346Z,120
2017-04-04T08:44:54.358Z,120
2017-04-04T08:45:53.623Z,120
2017-04-04T08:46:53.703Z,115
2017-04-04T08:47:53.698Z,115
2017-04-04T08:48:53.720Z,115
2017-04-04T08:49:54.870Z,115
2017-04-04T08:50:53.997Z,115
2017-04-04T08:51:54.033Z,110
2017-04-04T08:52:54.001Z,110
2017-04-04T08:53:55.870Z,110
2017-04-04T08:54:54.076Z,110
2017-04-04T08:55:55.219Z,110
2017-04-04T08:56:53.406Z,110
2017-04-04T08:57:53.858Z,105
2017-04-04T08:58:53.464Z,105
2017-04-04T08:59:53.784Z,105
2017-04-04T09:00:54.031Z,105
2017-04-04T09:01:54.053Z,105
2017-04-04T09:02:54.264Z,105
2017-04-04T09:03:54.300Z,100
2017-04-04T09:04:53.840Z,100
2017-04-04T09:05:54.183Z,100
2017-04-04T09:06:53.387Z,100
2017-04-04T09:07:53.927Z,100
2017-04-04T09:08:53.833Z,95
2017-04-04T09:09:54.116Z,95
2017-04-04T09:10:53.284Z,95
2017-04-04T09:11:53.894Z,90
2017-04-04T09:12:54.176Z,90
2017-04-04T09:13:55.028Z,90
2017-04-04T09:14:53.927Z,95
2017-04-04T09:15:54.532Z,95
2017-04-04T09:16:53.932Z,95
2017-04-04T09:17:53.984Z,95
2017-04-04T09:18:54.165Z,95
2017-04-04T09:19:54.158Z,95
2017-04-04T09:20:53.907Z,95
2017-04-04T09:21:53.853Z,95
2017-04-04T09:22:54.227Z,90
2017-04-04T09:23:54.191Z,95
2017-04-04T09:24:53.898Z,95
2017-04-04T09:25:53.879Z,95
2017-04-04T09:26:55.552Z,95
2017-04-04T09:27:56.504Z,95
2017-04-04T09:28:54.909Z,90
2017-04-04T09:29:53.935Z,90
2017-04-04T09:30:54.281Z,90
2017-04-04T09:31:54.013Z,90
2017-04-04T09:32:53.974Z,90
2017-04-04T09:34:08.917Z,90
2017-04-04T09:34:53.946Z,90
2017-04-04T09:35:54.311Z,90
2017-04-04T09:36:54.326Z,90
2017-04-04T09:37:55.770Z,90
2017-04-04T09:38:54.013Z,90
2017-04-04T09:39:55.238Z,90
2017-04-04T09:40:54.341Z,90
2017-04-04T09:41:54.308Z,90
2017-04-04T09:42:54.315Z,90
2017-04-04T09:43:54.049Z,90
2017-04-04T09:44:53.794Z,90
2017-04-04T09:45:53.480Z,90
2017-04-04T09:46:54.128Z,85
2017-04-04T09:47:54.075Z,85
2017-04-04T09:48:54.031Z,85
2017-04-04T09:49:54.345Z,85
2017-04-04T09:50:55.608Z,85
2017-04-04T09:51:54.519Z,85
2017-04-04T09:52:54.459Z,85
2017-04-04T09:53:54.476Z,85
2017-04-04T09:54:54.391Z,85
2017-04-04T09:55:54.439Z,85
2017-04-04T09:56:54.122Z,85
2017-04-04T09:57:54.655Z,85
2017-04-04T09:58:54.454Z,85
2017-04-04T09:59:54.505Z,85
2017-04-04T10:00:54.412Z,80
2017-04-04T10:01:56.008Z,80
2017-04-04T10:02:54.548Z,80
2017-04-04T10:03:54.492Z,75
2017-04-04T10:04:54.441Z,75
2017-04-04T10:05:53.825Z,80
2017-04-04T10:06:54.613Z,70
2017-04-04T10:07:54.548Z,70
2017-04-04T10:08:55.167Z,75
2017-04-04T10:09:54.631Z,85
2017-04-04T10:10:54.619Z,85
2017-04-04T10:11:54.530Z,85
2017-04-04T10:12:54.280Z,80
2017-04-04T10:13:54.579Z,80
2017-04-04T10:14:54.545Z,80
2017-04-04T10:15:54.250Z,80
2017-04-04T10:16:54.572Z,80
2017-04-04T10:17:54.572Z,80
2017-04-04T10:18:54.212Z,80
2017-04-04T10:19:55.664Z,80
2017-04-04T10:20:54.395Z,80
2017-04-04T10:21:55.233Z,80
2017-04-04T10:22:54.025Z,80
2017-04-04T10:23:54.563Z,80
2017-04-04T10:24:54.240Z,80
2017-04-04T10:25:54.248Z,80
2017-04-04T10:26:54.719Z,80
2017-04-04T10:27:54.630Z,80
2017-04-04T10:28:54.375Z,80
2017-04-04T10:29:54.642Z,80
2017-04-04T10:30:54.596Z,80
2017-04-04T10:31:54.356Z,75
2017-04-04T10:32:55.837Z,65
2017-04-04T10:33:54.706Z,80
2017-04-04T10:34:55.114Z,75
2017-04-04T10:35:54.408Z,75
2017-04-04T10:36:54.316Z,75
2017-04-04T10:37:54.745Z,75
2017-04-04T10:38:54.337Z,75
2017-04-04T10:39:53.712Z,75
2017-04-04T10:40:54.498Z,75
2017-04-04T10:41:54.759Z,75
2017-04-04T10:42:54.357Z,75
2017-04-04T10:43:56.550Z,75
2017-04-04T10:44:54.730Z,75
2017-04-04T10:45:55.350Z,75
2017-04-04T10:46:54.543Z,70
2017-04-04T10:47:54.570Z,75
2017-04-04T10:48:54.699Z,75
2017-04-04T10:49:54.768Z,75
2017-04-04T10:50:53.772Z,75
2017-04-04T10:51:54.240Z,75
2017-04-04T10:52:55.098Z,75
2017-04-04T10:53:54.466Z,75
2017-04-04T10:54:54.894Z,75
2017-04-04T10:55:54.526Z,75
2017-04-04T10:56:54.492Z,75
2017-04-04T10:57:54.566Z,75
2017-04-04T10:58:54.442Z,75
2017-04-04T10:59:54.504Z,75
2017-04-04T11:00:54.786Z,70
2017-04-04T11:01:54.567Z,70
2017-04-04T11:02:54.891Z,70
2017-04-04T11:03:56.042Z,60
2017-04-04T11:04:54.547Z,70
2017-04-04T11:05:55.301Z,70
2017-04-04T11:06:54.553Z,70
2017-04-04T11:07:54.968Z,60
2017-04-04T11:08:54.837Z,55
2017-04-04T11:09:54.574Z,55
2017-04-04T11:10:54.625Z,55
2017-04-04T11:11:54.571Z,55
2017-04-04T11:12:54.606Z,55
2017-04-04T11:13:54.893Z,70
2017-04-04T11:14:56.327Z,70
2017-04-04T11:15:54.908Z,70
2017-04-04T11:16:55.440Z,65
2017-04-04T11:17:55.079Z,65
2017-04-04T11:18:55.140Z,65
2017-04-04T11:19:54.930Z,70
2017-04-04T11:20:54.330Z,70
2017-04-04T11:21:54.703Z,70
2017-04-04T11:22:54.696Z,70
2017-04-04T11:23:54.761Z,70
2017-04-04T11:24:55.079Z,70
2017-04-04T11:25:54.965Z,70
2017-04-04T11:26:54.992Z,65
2017-04-04T11:27:56.352Z,70
2017-04-04T11:28:54.739Z,65
2017-04-04T11:29:55.737Z,60
2017-04-04T11:30:54.968Z,60
2017-04-04T11:31:55.065Z,60
2017-04-04T11:32:55.818Z,60
2017-04-04T11:33:54.662Z,60
2017-04-04T11:34:54.716Z,70
2017-04-04T11:35:54.419Z,70
2017-04-04T11:36:55.088Z,70
2017-04-04T11:37:55.077Z,65
2017-04-04T11:38:55.074Z,70
2017-04-04T11:39:54.692Z,70
2017-04-04T11:40:56.233Z,75
2017-04-04T11:41:54.446Z,70
2017-04-04T11:42:55.026Z,65
2017-04-04T11:43:54.416Z,65
2017-04-04T11:44:54.783Z,65
2017-04-04T11:45:54.737Z,60
2017-04-04T11:46:55.116Z,55
2017-04-04T11:47:55.300Z,55
2017-04-04T11:48:54.742Z,60
2017-04-04T11:49:55.178Z,65
2017-04-04T11:50:54.459Z,60
2017-04-04T11:51:54.772Z,60
2017-04-04T11:52:55.085Z,60
2017-04-04T11:53:55.555Z,60
2017-04-04T11:54:55.195Z,60
2017-04-04T11:55:54.596Z,60
2017-04-04T11:56:55.316Z,60
2017-04-04T11:57:55.220Z,60
2017-04-04T11:58:56.338Z,65
2017-04-04T11:59:55.233Z,70
2017-04-04T12:00:55.714Z,65
2017-04-04T12:01:55.366Z,65
2017-04-04T12:02:54.830Z,65
2017-04-04T12:03:54.895Z,65
2017-04-04T12:04:55.214Z,65
2017-04-04T12:05:55.232Z,65
2017-04-04T12:06:54.960Z,65
2017-04-04T12:07:55.025Z,65
2017-04-04T12:08:54.774Z,60
2017-04-04T12:09:55.036Z,60
2017-04-04T12:10:55.188Z,60
2017-04-04T12:11:56.110Z,60
2017-04-04T12:12:55.284Z,55
2017-04-04T12:13:54.902Z,60
2017-04-04T12:14:55.420Z,45
2017-04-04T12:15:55.239Z,45
2017-04-04T12:16:55.291Z,45
2017-04-04T12:17:55.582Z,50
2017-04-04T12:18:54.998Z,45
2017-04-04T12:19:55.316Z,45
2017-04-04T12:20:54.997Z,45
2017-04-04T12:21:55.002Z,45
2017-04-04T12:22:54.692Z,50
2017-04-04T12:23:55.287Z,60
2017-04-04T12:24:54.979Z,60
2017-04-04T12:25:54.971Z,60
2017-04-04T12:26:54.847Z,60
2017-04-04T12:27:55.042Z,60
2017-04-04T12:28:55.509Z,60
2017-04-04T12:29:55.373Z,60
2017-04-04T12:30:55.328Z,55
2017-04-04T12:31:54.844Z,55
2017-04-04T12:32:55.068Z,55
2017-04-04T12:33:56.024Z,55
2017-04-04T12:34:54.772Z,55
2017-04-04T12:35:55.077Z,55
2017-04-04T12:36:55.397Z,55
2017-04-04T12:37:55.369Z,55
2017-04-04T12:38:55.101Z,55
2017-04-04T12:39:55.412Z,50
2017-04-04T12:40:55.064Z,50
2017-04-04T12:41:55.387Z,50
2017-04-04T12:42:56.866Z,50
2017-04-04T12:43:54.830Z,50
2017-04-04T12:44:56.000Z,55
2017-04-04T12:45:55.139Z,55
2017-04-04T12:46:56.532Z,55
2017-04-04T12:47:54.936Z,60
2017-04-04T12:48:54.864Z,55
2017-04-04T12:49:57.140Z,55
2017-04-04T12:50:55.270Z,55
2017-04-04T12:51:55.143Z,55
2017-04-04T12:52:55.514Z,60
2017-04-04T12:53:56.036Z,55
2017-04-04T12:54:55.611Z,55
2017-04-04T12:55:55.681Z,60
2017-04-04T12:56:55.165Z,60
2017-04-04T12:57:56.934Z,60
2017-04-04T12:58:55.523Z,55
2017-04-04T12:59:55.509Z,55
2017-04-04T13:00:55.558Z,55
2017-04-04T13:01:55.563Z,55
2017-04-04T13:02:55.560Z,55
2017-04-04T13:03:55.304Z,55
2017-04-04T13:04:56.478Z,45
2017-04-04T13:05:55.220Z,45
2017-04-04T13:06:55.587Z,45
2017-04-04T13:07:56.589Z,45
2017-04-04T13:08:56.706Z,45
2017-04-04T13:09:55.116Z,50
2017-04-04T13:10:55.666Z,50
2017-04-04T13:11:55.612Z,50
2017-04-04T13:12:55.325Z,50
2017-04-04T13:13:55.299Z,50
2017-04-04T13:14:55.675Z,45
2017-04-04T13:15:55.596Z,50
2017-04-04T13:16:55.604Z,50
2017-04-04T13:17:55.538Z,55
2017-04-04T13:18:55.348Z,55
2017-04-04T13:19:57.012Z,55
2017-04-04T13:20:55.624Z,50
2017-04-04T13:21:55.641Z,50
2017-04-04T13:22:55.375Z,50
2017-04-04T13:23:55.638Z,50
2017-04-04T13:24:55.101Z,50
2017-04-04T13:25:55.173Z,50
2017-04-04T13:26:55.767Z,50
2017-04-04T13:27:55.763Z,50
2017-04-04T13:28:55.720Z,45
2017-04-04T13:29:55.672Z,45
2017-04-04T13:30:56.871Z,45
2017-04-04T13:31:55.368Z,45
2017-04-04T13:32:55.789Z,45
2017-04-04T13:33:55.326Z,45
2017-04-04T13:34:55.709Z,40
2017-04-04T13:35:55.708Z,40
2017-04-04T13:36:55.625Z,40
2017-04-04T13:37:55.814Z,40
2017-04-04T13:38:55.838Z,40
2017-04-04T13:39:55.758Z,40
2017-04-04T13:41:10.305Z,40
2017-04-04T13:41:56.682Z,40
2017-04-04T13:42:55.443Z,40
2017-04-04T13:43:55.552Z,45
2017-04-04T13:44:54.896Z,45
2017-04-04T13:45:57.532Z,45
2017-04-04T13:46:55.514Z,45
2017-04-04T13:47:55.782Z,45
2017-04-04T13:48:55.805Z,40
2017-04-04T13:49:55.622Z,40
2017-04-04T13:50:56.928Z,45
2017-04-04T13:51:55.541Z,40
2017-04-04T13:52:56.298Z,40
2017-04-04T13:53:55.628Z,40
2017-04-04T13:54:55.509Z,45
2017-04-04T13:55:55.835Z,45
2017-04-04T13:56:55.579Z,45
2017-04-04T13:57:55.222Z,45
2017-04-04T13:58:55.900Z,45
2017-04-04T13:59:56.306Z,45
2017-04-04T14:00:54.929Z,45
2017-04-04T14:01:55.906Z,45
2017-04-04T14:02:55.318Z,45
2017-04-04T14:03:58.271Z,45
2017-04-04T14:04:55.622Z,45
2017-04-04T14:05:57.696Z,45
2017-04-04T14:06:55.778Z,45
2017-04-04T14:07:55.937Z,40
2017-04-04T14:08:55.963Z,35
2017-04-04T14:09:56.060Z,35
2017-04-04T14:10:55.932Z,35
2017-04-04T14:11:55.910Z,40
2017-04-04T14:12:55.986Z,40
2017-04-04T14:13:55.944Z,40
2017-04-04T14:14:56.457Z,40
2017-04-04T14:15:55.992Z,40
2017-04-04T14:16:55.691Z,45
2017-04-04T14:17:55.967Z,45
2017-04-04T14:18:56.775Z,45
2017-04-04T14:19:55.191Z,45
2017-04-04T14:20:56.230Z,45